< Typhoon 196123 1961 Season Typhoon 196125 >
Typhoon 196124 (VIOLET)
General InformationTrack Information on Google Maps || Disaster Info.ResourceGoogle EarthGE AnimationAtom FeedGeoJSON
Detalied Best Track (Time Zone = UTC)
Year Month Day Hour Lat. Long. Pressure (hPa) Wind (kt) Class Image Chart
1961 10 2 18 21.6 151.4 1008 0 2 -- Chart
1961 10 3 00 22.0 151.1 1008 0 2 -- Chart
1961 10 3 06 21.0 151.0 1004 0 2 -- Chart
1961 10 3 12 20.0 150.0 1004 0 2 -- Chart
1961 10 3 18 19.6 148.7 1004 0 2 -- Chart
1961 10 4 00 19.3 147.3 1002 0 2 -- Chart
1961 10 4 06 18.7 146.4 1000 0 2 -- Chart
1961 10 4 12 18.4 145.8 1000 0 2 -- Chart
1961 10 4 18 17.8 145.4 996 0 9 -- Chart
1961 10 5 00 17.0 145.0 988 0 9 -- Chart
1961 10 5 06 16.7 144.6 980 0 9 -- Chart
1961 10 5 12 16.3 144.0 980 0 9 -- Chart
1961 10 5 18 16.3 143.6 970 0 9 -- Chart
1961 10 6 00 16.5 143.5 970 0 9 -- Chart
1961 10 6 06 17.2 143.2 960 0 9 -- Chart
1961 10 6 12 18.0 142.6 930 0 9 -- Chart
1961 10 6 18 18.8 142.0 910 0 9 -- Chart
1961 10 7 00 19.6 141.4 900 0 9 -- Chart
1961 10 7 06 20.1 140.9 895 0 9 -- Chart
1961 10 7 12 21.1 140.1 895 0 9 -- Chart
1961 10 7 18 22.0 139.4 895 0 9 -- Chart
1961 10 8 00 22.7 138.6 900 0 9 -- Chart
1961 10 8 06 23.8 138.0 910 0 9 -- Chart
1961 10 8 12 25.0 137.3 915 0 9 -- Chart
1961 10 8 18 26.5 137.0 915 0 9 -- Chart
1961 10 9 00 27.5 136.5 930 0 9 -- Chart
1961 10 9 06 29.5 137.1 930 0 9 -- Chart
1961 10 9 12 31.2 137.9 945 0 9 -- Chart
1961 10 9 18 33.5 138.5 945 0 9 -- Chart
1961 10 10 00 35.8 140.8 970 0 9 -- Chart
1961 10 10 06 38.3 143.3 975 0 9 -- Chart
1961 10 10 12 39.8 145.3 990 0 6 -- Chart
1961 10 10 18 40.8 146.7 1002 0 6 -- Chart
1961 10 11 00 42.0 148.0 1004 0 6 -- Chart
1961 10 11 06 43.0 148.5 1006 0 6 -- Chart
1961 10 11 12 44.7 149.1 1010 0 6 -- Chart
1961 10 11 18 46.0 149.7 1010 0 6 -- Chart
Japan Meteorological Agency Best Track Data | Correction Date : 1989-06-01
< Typhoon 196123 1961 Season Typhoon 196125 >

Help